sensor_id;sensor_type;location;lat;lon;timestamp;temperature;humidity
25871;DHT22;13689;48.590;7.752;2023-01-24T00:00:49;3.80;88.90
25871;DHT22;13689;48.590;7.752;2023-01-24T00:03:15;3.80;89.00
25871;DHT22;13689;48.590;7.752;2023-01-24T00:05:46;3.80;89.00
25871;DHT22;13689;48.590;7.752;2023-01-24T00:08:13;3.80;89.00
25871;DHT22;13689;48.590;7.752;2023-01-24T00:10:39;3.80;89.20
25871;DHT22;13689;48.590;7.752;2023-01-24T00:13:05;3.90;89.20
25871;DHT22;13689;48.590;7.752;2023-01-24T00:15:31;3.90;89.00
25871;DHT22;13689;48.590;7.752;2023-01-24T00:17:57;3.80;88.80
25871;DHT22;13689;48.590;7.752;2023-01-24T00:20:22;3.80;88.90
25871;DHT22;13689;48.590;7.752;2023-01-24T00:22:48;3.80;89.00
25871;DHT22;13689;48.590;7.752;2023-01-24T00:25:14;3.90;89.10
25871;DHT22;13689;48.590;7.752;2023-01-24T00:27:40;3.90;89.00
25871;DHT22;13689;48.590;7.752;2023-01-24T00:30:06;3.80;88.80
25871;DHT22;13689;48.590;7.752;2023-01-24T00:32:32;3.80;88.90
25871;DHT22;13689;48.590;7.752;2023-01-24T00:34:58;3.80;88.90
25871;DHT22;13689;48.590;7.752;2023-01-24T00:37:24;3.80;89.00
25871;DHT22;13689;48.590;7.752;2023-01-24T00:39:49;3.80;88.90
25871;DHT22;13689;48.590;7.752;2023-01-24T00:42:15;3.80;89.20
25871;DHT22;13689;48.590;7.752;2023-01-24T00:44:41;3.80;89.30
25871;DHT22;13689;48.590;7.752;2023-01-24T00:47:06;3.80;89.10
25871;DHT22;13689;48.590;7.752;2023-01-24T00:49:32;3.80;89.10
25871;DHT22;13689;48.590;7.752;2023-01-24T00:51:57;3.80;89.10
25871;DHT22;13689;48.590;7.752;2023-01-24T00:54:23;3.80;89.30
25871;DHT22;13689;48.590;7.752;2023-01-24T00:56:49;3.80;89.40
25871;DHT22;13689;48.590;7.752;2023-01-24T00:59:14;3.80;89.30
25871;DHT22;13689;48.590;7.752;2023-01-24T01:01:40;3.80;89.20
25871;DHT22;13689;48.590;7.752;2023-01-24T01:04:05;3.80;89.20
25871;DHT22;13689;48.590;7.752;2023-01-24T01:06:31;3.80;89.30
25871;DHT22;13689;48.590;7.752;2023-01-24T01:08:57;3.80;89.30
25871;DHT22;13689;48.590;7.752;2023-01-24T01:11:23;3.80;89.50
25871;DHT22;13689;48.590;7.752;2023-01-24T01:13:48;3.80;89.50
25871;DHT22;13689;48.590;7.752;2023-01-24T01:16:17;3.80;89.40
25871;DHT22;13689;48.590;7.752;2023-01-24T01:18:45;3.80;89.50
25871;DHT22;13689;48.590;7.752;2023-01-24T01:21:18;3.80;89.20
25871;DHT22;13689;48.590;7.752;2023-01-24T01:23:44;3.80;89.40
25871;DHT22;13689;48.590;7.752;2023-01-24T01:26:15;3.80;89.50
25871;DHT22;13689;48.590;7.752;2023-01-24T01:28:41;3.80;89.60
25871;DHT22;13689;48.590;7.752;2023-01-24T01:31:06;3.80;89.50
25871;DHT22;13689;48.590;7.752;2023-01-24T01:33:32;3.80;89.60
25871;DHT22;13689;48.590;7.752;2023-01-24T01:35:58;3.80;89.60
25871;DHT22;13689;48.590;7.752;2023-01-24T01:38:23;3.70;89.60
25871;DHT22;13689;48.590;7.752;2023-01-24T01:40:51;3.80;89.70
25871;DHT22;13689;48.590;7.752;2023-01-24T01:43:22;3.80;89.70
25871;DHT22;13689;48.590;7.752;2023-01-24T01:48:39;3.80;89.60
25871;DHT22;13689;48.590;7.752;2023-01-24T01:53:51;3.80;89.60
25871;DHT22;13689;48.590;7.752;2023-01-24T01:56:25;3.80;89.70
25871;DHT22;13689;48.590;7.752;2023-01-24T01:58:52;3.80;89.50
25871;DHT22;13689;48.590;7.752;2023-01-24T02:01:18;3.80;89.50
25871;DHT22;13689;48.590;7.752;2023-01-24T02:03:53;3.80;89.60
25871;DHT22;13689;48.590;7.752;2023-01-24T02:06:54;3.80;89.50
25871;DHT22;13689;48.590;7.752;2023-01-24T02:09:23;3.80;89.50
25871;DHT22;13689;48.590;7.752;2023-01-24T02:11:53;3.80;89.50
25871;DHT22;13689;48.590;7.752;2023-01-24T02:14:21;3.80;89.40
25871;DHT22;13689;48.590;7.752;2023-01-24T02:17:07;3.80;90.10
25871;DHT22;13689;48.590;7.752;2023-01-24T02:19:50;3.80;89.50
25871;DHT22;13689;48.590;7.752;2023-01-24T02:25:36;3.80;89.40
25871;DHT22;13689;48.590;7.752;2023-01-24T02:28:04;3.80;89.30
25871;DHT22;13689;48.590;7.752;2023-01-24T02:30:31;3.80;89.10
25871;DHT22;13689;48.590;7.752;2023-01-24T02:32:57;3.80;89.00
25871;DHT22;13689;48.590;7.752;2023-01-24T02:35:28;3.80;89.20
25871;DHT22;13689;48.590;7.752;2023-01-24T02:37:56;3.70;89.00
25871;DHT22;13689;48.590;7.752;2023-01-24T02:40:24;3.70;89.20
25871;DHT22;13689;48.590;7.752;2023-01-24T02:42:51;3.80;89.30
25871;DHT22;13689;48.590;7.752;2023-01-24T02:45:21;3.70;89.00
25871;DHT22;13689;48.590;7.752;2023-01-24T02:47:51;3.70;89.20
25871;DHT22;13689;48.590;7.752;2023-01-24T02:50:18;3.70;89.10
25871;DHT22;13689;48.590;7.752;2023-01-24T02:52:45;3.70;89.00
25871;DHT22;13689;48.590;7.752;2023-01-24T02:55:30;3.70;89.00
25871;DHT22;13689;48.590;7.752;2023-01-24T02:57:56;3.80;89.00
25871;DHT22;13689;48.590;7.752;2023-01-24T03:00:43;3.70;89.00
25871;DHT22;13689;48.590;7.752;2023-01-24T03:03:09;3.70;89.00
25871;DHT22;13689;48.590;7.752;2023-01-24T03:05:35;3.70;88.90
25871;DHT22;13689;48.590;7.752;2023-01-24T03:08:19;3.70;88.80
25871;DHT22;13689;48.590;7.752;2023-01-24T03:10:45;3.70;89.10
25871;DHT22;13689;48.590;7.752;2023-01-24T03:13:12;3.70;89.00
25871;DHT22;13689;48.590;7.752;2023-01-24T03:15:59;3.70;89.00
25871;DHT22;13689;48.590;7.752;2023-01-24T03:18:43;3.70;89.10
25871;DHT22;13689;48.590;7.752;2023-01-24T03:21:27;3.70;89.10
25871;DHT22;13689;48.590;7.752;2023-01-24T03:24:11;3.70;89.10
25871;DHT22;13689;48.590;7.752;2023-01-24T03:26:55;3.70;89.00
25871;DHT22;13689;48.590;7.752;2023-01-24T03:29:39;3.80;89.30
25871;DHT22;13689;48.590;7.752;2023-01-24T03:32:23;3.70;89.00
25871;DHT22;13689;48.590;7.752;2023-01-24T03:35:07;3.70;89.00
25871;DHT22;13689;48.590;7.752;2023-01-24T03:37:33;3.70;89.20
25871;DHT22;13689;48.590;7.752;2023-01-24T03:40:17;3.70;89.40
25871;DHT22;13689;48.590;7.752;2023-01-24T03:42:43;3.70;89.40
25871;DHT22;13689;48.590;7.752;2023-01-24T03:45:22;3.70;89.40
25871;DHT22;13689;48.590;7.752;2023-01-24T03:47:53;3.70;89.30
25871;DHT22;13689;48.590;7.752;2023-01-24T03:50:37;3.80;89.40
25871;DHT22;13689;48.590;7.752;2023-01-24T03:53:24;3.80;89.20
25871;DHT22;13689;48.590;7.752;2023-01-24T03:55:58;3.80;89.10
25871;DHT22;13689;48.590;7.752;2023-01-24T03:58:26;3.80;89.10
25871;DHT22;13689;48.590;7.752;2023-01-24T04:00:52;3.70;89.10
25871;DHT22;13689;48.590;7.752;2023-01-24T04:03:18;3.80;89.30
25871;DHT22;13689;48.590;7.752;2023-01-24T04:05:46;3.80;89.30
25871;DHT22;13689;48.590;7.752;2023-01-24T04:08:12;3.70;89.30
25871;DHT22;13689;48.590;7.752;2023-01-24T04:10:38;3.80;89.50
25871;DHT22;13689;48.590;7.752;2023-01-24T04:13:03;3.80;89.40
25871;DHT22;13689;48.590;7.752;2023-01-24T04:15:30;3.80;89.50
25871;DHT22;13689;48.590;7.752;2023-01-24T04:17:58;3.80;89.50
25871;DHT22;13689;48.590;7.752;2023-01-24T04:20:25;3.80;89.50
25871;DHT22;13689;48.590;7.752;2023-01-24T04:22:51;3.80;89.30
25871;DHT22;13689;48.590;7.752;2023-01-24T04:25:17;3.70;89.30
25871;DHT22;13689;48.590;7.752;2023-01-24T04:27:43;3.80;89.60
25871;DHT22;13689;48.590;7.752;2023-01-24T04:30:11;3.80;89.60
25871;DHT22;13689;48.590;7.752;2023-01-24T04:32:37;3.70;89.30
25871;DHT22;13689;48.590;7.752;2023-01-24T04:35:03;3.80;89.50
25871;DHT22;13689;48.590;7.752;2023-01-24T04:37:30;3.80;89.60
25871;DHT22;13689;48.590;7.752;2023-01-24T04:39:56;3.80;89.60
25871;DHT22;13689;48.590;7.752;2023-01-24T04:42:21;3.80;89.70
25871;DHT22;13689;48.590;7.752;2023-01-24T04:44:47;3.80;89.60
25871;DHT22;13689;48.590;7.752;2023-01-24T04:47:14;3.80;89.50
25871;DHT22;13689;48.590;7.752;2023-01-24T04:49:40;3.80;89.50
25871;DHT22;13689;48.590;7.752;2023-01-24T04:52:11;3.80;89.50
25871;DHT22;13689;48.590;7.752;2023-01-24T04:54:38;3.80;89.70
25871;DHT22;13689;48.590;7.752;2023-01-24T04:57:04;3.80;89.70
25871;DHT22;13689;48.590;7.752;2023-01-24T04:59:30;3.80;89.60
25871;DHT22;13689;48.590;7.752;2023-01-24T05:01:56;3.80;89.60
25871;DHT22;13689;48.590;7.752;2023-01-24T05:04:21;3.80;89.70
25871;DHT22;13689;48.590;7.752;2023-01-24T05:06:47;3.80;89.70
25871;DHT22;13689;48.590;7.752;2023-01-24T05:09:13;3.80;89.80
25871;DHT22;13689;48.590;7.752;2023-01-24T05:11:38;3.70;89.90
25871;DHT22;13689;48.590;7.752;2023-01-24T05:14:04;3.70;89.90
25871;DHT22;13689;48.590;7.752;2023-01-24T05:16:29;3.70;89.90
25871;DHT22;13689;48.590;7.752;2023-01-24T05:18:55;3.70;89.90
25871;DHT22;13689;48.590;7.752;2023-01-24T05:21:21;3.70;89.90
25871;DHT22;13689;48.590;7.752;2023-01-24T05:23:50;3.70;90.00
25871;DHT22;13689;48.590;7.752;2023-01-24T05:26:19;3.70;90.00
25871;DHT22;13689;48.590;7.752;2023-01-24T05:28:47;3.60;90.00
25871;DHT22;13689;48.590;7.752;2023-01-24T05:31:12;3.60;90.10
25871;DHT22;13689;48.590;7.752;2023-01-24T05:33:38;3.60;90.10
25871;DHT22;13689;48.590;7.752;2023-01-24T05:36:06;3.60;90.20
25871;DHT22;13689;48.590;7.752;2023-01-24T05:38:33;3.60;90.20
25871;DHT22;13689;48.590;7.752;2023-01-24T05:41:07;3.60;90.30
25871;DHT22;13689;48.590;7.752;2023-01-24T05:43:49;3.60;90.30
25871;DHT22;13689;48.590;7.752;2023-01-24T05:46:17;3.60;90.40
25871;DHT22;13689;48.590;7.752;2023-01-24T05:48:44;3.60;90.30
25871;DHT22;13689;48.590;7.752;2023-01-24T05:51:12;3.70;90.40
25871;DHT22;13689;48.590;7.752;2023-01-24T05:53:39;3.70;90.40
25871;DHT22;13689;48.590;7.752;2023-01-24T05:56:09;3.70;90.30
25871;DHT22;13689;48.590;7.752;2023-01-24T05:58:36;3.70;90.40
25871;DHT22;13689;48.590;7.752;2023-01-24T06:01:10;3.70;90.40
25871;DHT22;13689;48.590;7.752;2023-01-24T06:03:40;3.70;90.30
25871;DHT22;13689;48.590;7.752;2023-01-24T06:06:07;3.70;90.40
25871;DHT22;13689;48.590;7.752;2023-01-24T06:08:34;3.70;90.30
25871;DHT22;13689;48.590;7.752;2023-01-24T06:11:05;3.70;90.40
25871;DHT22;13689;48.590;7.752;2023-01-24T06:13:32;3.70;90.30
25871;DHT22;13689;48.590;7.752;2023-01-24T06:16:12;3.70;90.30
25871;DHT22;13689;48.590;7.752;2023-01-24T06:18:38;3.80;90.40
25871;DHT22;13689;48.590;7.752;2023-01-24T06:21:07;3.80;90.40
25871;DHT22;13689;48.590;7.752;2023-01-24T06:23:33;3.80;90.30
25871;DHT22;13689;48.590;7.752;2023-01-24T06:25:59;3.80;90.30
25871;DHT22;13689;48.590;7.752;2023-01-24T06:28:25;3.80;90.30
25871;DHT22;13689;48.590;7.752;2023-01-24T06:31:09;3.80;90.30
25871;DHT22;13689;48.590;7.752;2023-01-24T06:39:20;3.80;90.20
25871;DHT22;13689;48.590;7.752;2023-01-24T06:41:47;3.80;90.10
25871;DHT22;13689;48.590;7.752;2023-01-24T06:44:13;3.80;90.30
25871;DHT22;13689;48.590;7.752;2023-01-24T06:46:39;3.80;90.30
25871;DHT22;13689;48.590;7.752;2023-01-24T06:49:05;3.80;90.30
25871;DHT22;13689;48.590;7.752;2023-01-24T06:51:30;3.80;90.30
25871;DHT22;13689;48.590;7.752;2023-01-24T06:53:59;3.80;90.30
25871;DHT22;13689;48.590;7.752;2023-01-24T06:56:25;3.80;90.40
25871;DHT22;13689;48.590;7.752;2023-01-24T06:58:51;3.80;90.30
25871;DHT22;13689;48.590;7.752;2023-01-24T07:01:17;3.80;90.30
25871;DHT22;13689;48.590;7.752;2023-01-24T07:03:43;3.80;90.30
25871;DHT22;13689;48.590;7.752;2023-01-24T07:06:08;3.70;90.30
25871;DHT22;13689;48.590;7.752;2023-01-24T07:08:34;3.80;90.40
25871;DHT22;13689;48.590;7.752;2023-01-24T07:10:59;3.80;90.40
25871;DHT22;13689;48.590;7.752;2023-01-24T07:13:25;3.80;90.40
25871;DHT22;13689;48.590;7.752;2023-01-24T07:15:51;3.80;90.70
25871;DHT22;13689;48.590;7.752;2023-01-24T07:18:18;3.80;90.30
25871;DHT22;13689;48.590;7.752;2023-01-24T07:20:44;3.70;90.30
25871;DHT22;13689;48.590;7.752;2023-01-24T07:23:22;3.80;90.40
25871;DHT22;13689;48.590;7.752;2023-01-24T07:25:52;3.80;90.40
25871;DHT22;13689;48.590;7.752;2023-01-24T07:28:18;3.80;90.40
25871;DHT22;13689;48.590;7.752;2023-01-24T07:30:44;3.80;90.30
25871;DHT22;13689;48.590;7.752;2023-01-24T07:33:13;3.80;90.30
25871;DHT22;13689;48.590;7.752;2023-01-24T07:35:40;3.80;90.40
25871;DHT22;13689;48.590;7.752;2023-01-24T07:38:06;3.80;90.40
25871;DHT22;13689;48.590;7.752;2023-01-24T07:40:32;3.80;90.40
25871;DHT22;13689;48.590;7.752;2023-01-24T07:43:01;3.80;90.40
25871;DHT22;13689;48.590;7.752;2023-01-24T07:45:27;3.80;90.40
25871;DHT22;13689;48.590;7.752;2023-01-24T07:47:57;3.80;90.40
25871;DHT22;13689;48.590;7.752;2023-01-24T07:50:24;3.80;90.40
25871;DHT22;13689;48.590;7.752;2023-01-24T07:52:53;3.80;90.30
25871;DHT22;13689;48.590;7.752;2023-01-24T07:55:20;3.80;90.30
25871;DHT22;13689;48.590;7.752;2023-01-24T07:57:46;3.80;90.30
25871;DHT22;13689;48.590;7.752;2023-01-24T08:00:12;3.80;90.40
25871;DHT22;13689;48.590;7.752;2023-01-24T08:02:39;3.80;90.30
25871;DHT22;13689;48.590;7.752;2023-01-24T08:05:05;3.80;90.30
25871;DHT22;13689;48.590;7.752;2023-01-24T08:07:31;3.70;90.30
25871;DHT22;13689;48.590;7.752;2023-01-24T08:09:57;3.80;90.40
25871;DHT22;13689;48.590;7.752;2023-01-24T08:12:23;3.80;90.50
25871;DHT22;13689;48.590;7.752;2023-01-24T08:14:48;3.80;90.50
25871;DHT22;13689;48.590;7.752;2023-01-24T08:17:14;3.90;90.40
25871;DHT22;13689;48.590;7.752;2023-01-24T08:19:40;3.90;90.30
25871;DHT22;13689;48.590;7.752;2023-01-24T08:22:07;3.90;90.40
25871;DHT22;13689;48.590;7.752;2023-01-24T08:24:33;4.00;90.30
25871;DHT22;13689;48.590;7.752;2023-01-24T08:27:02;4.00;90.10
25871;DHT22;13689;48.590;7.752;2023-01-24T08:29:28;4.00;90.20
25871;DHT22;13689;48.590;7.752;2023-01-24T08:31:54;4.00;90.20
25871;DHT22;13689;48.590;7.752;2023-01-24T08:34:20;4.00;90.30
25871;DHT22;13689;48.590;7.752;2023-01-24T08:36:46;4.00;90.20
25871;DHT22;13689;48.590;7.752;2023-01-24T08:39:11;4.00;90.20
25871;DHT22;13689;48.590;7.752;2023-01-24T08:41:37;4.00;90.20
25871;DHT22;13689;48.590;7.752;2023-01-24T08:44:04;4.00;90.20
25871;DHT22;13689;48.590;7.752;2023-01-24T08:46:30;4.00;90.20
25871;DHT22;13689;48.590;7.752;2023-01-24T08:48:56;4.10;90.20
25871;DHT22;13689;48.590;7.752;2023-01-24T08:51:22;4.10;90.10
25871;DHT22;13689;48.590;7.752;2023-01-24T08:53:48;4.10;90.10
25871;DHT22;13689;48.590;7.752;2023-01-24T08:56:14;4.10;90.00
25871;DHT22;13689;48.590;7.752;2023-01-24T08:58:40;4.10;90.40
25871;DHT22;13689;48.590;7.752;2023-01-24T09:01:09;4.10;90.10
25871;DHT22;13689;48.590;7.752;2023-01-24T09:03:35;4.10;90.10
25871;DHT22;13689;48.590;7.752;2023-01-24T09:06:02;4.10;90.10
25871;DHT22;13689;48.590;7.752;2023-01-24T09:08:28;4.10;90.00
25871;DHT22;13689;48.590;7.752;2023-01-24T09:10:56;4.10;90.00
25871;DHT22;13689;48.590;7.752;2023-01-24T09:13:22;4.10;90.00
25871;DHT22;13689;48.590;7.752;2023-01-24T09:15:47;4.20;90.50
25871;DHT22;13689;48.590;7.752;2023-01-24T09:18:13;4.20;90.10
25871;DHT22;13689;48.590;7.752;2023-01-24T09:20:38;4.30;90.00
25871;DHT22;13689;48.590;7.752;2023-01-24T09:23:08;4.20;89.90
25871;DHT22;13689;48.590;7.752;2023-01-24T09:25:34;4.20;90.00
25871;DHT22;13689;48.590;7.752;2023-01-24T09:28:00;4.30;90.10
25871;DHT22;13689;48.590;7.752;2023-01-24T09:30:26;4.30;89.90
25871;DHT22;13689;48.590;7.752;2023-01-24T09:32:51;4.20;89.90
25871;DHT22;13689;48.590;7.752;2023-01-24T09:35:17;4.20;89.80
25871;DHT22;13689;48.590;7.752;2023-01-24T09:37:42;4.20;89.80
25871;DHT22;13689;48.590;7.752;2023-01-24T09:40:27;4.30;90.00
25871;DHT22;13689;48.590;7.752;2023-01-24T09:43:04;4.30;90.00
25871;DHT22;13689;48.590;7.752;2023-01-24T09:45:56;4.30;89.80
25871;DHT22;13689;48.590;7.752;2023-01-24T09:48:23;4.30;89.60
25871;DHT22;13689;48.590;7.752;2023-01-24T09:50:51;4.20;89.50
25871;DHT22;13689;48.590;7.752;2023-01-24T09:53:24;4.30;89.40
25871;DHT22;13689;48.590;7.752;2023-01-24T09:55:52;4.30;89.70
25871;DHT22;13689;48.590;7.752;2023-01-24T09:58:34;4.30;89.60
25871;DHT22;13689;48.590;7.752;2023-01-24T10:01:07;4.30;89.60
25871;DHT22;13689;48.590;7.752;2023-01-24T10:03:34;4.30;89.30
25871;DHT22;13689;48.590;7.752;2023-01-24T10:25:02;4.70;88.70
25871;DHT22;13689;48.590;7.752;2023-01-24T10:27:32;4.70;88.30
25871;DHT22;13689;48.590;7.752;2023-01-24T10:30:11;4.70;88.30
25871;DHT22;13689;48.590;7.752;2023-01-24T10:32:38;4.80;88.20
25871;DHT22;13689;48.590;7.752;2023-01-24T10:35:14;4.80;88.10
25871;DHT22;13689;48.590;7.752;2023-01-24T10:37:50;4.80;89.00
25871;DHT22;13689;48.590;7.752;2023-01-24T10:40:21;4.80;88.20
25871;DHT22;13689;48.590;7.752;2023-01-24T10:42:47;4.80;88.00
25871;DHT22;13689;48.590;7.752;2023-01-24T10:51:15;4.80;87.80
25871;DHT22;13689;48.590;7.752;2023-01-24T10:53:41;4.90;88.00
25871;DHT22;13689;48.590;7.752;2023-01-24T10:56:07;4.80;87.50
25871;DHT22;13689;48.590;7.752;2023-01-24T10:58:43;4.80;87.60
25871;DHT22;13689;48.590;7.752;2023-01-24T11:01:19;4.80;87.70
25871;DHT22;13689;48.590;7.752;2023-01-24T11:03:46;4.90;87.90
25871;DHT22;13689;48.590;7.752;2023-01-24T11:06:35;4.90;87.40
25871;DHT22;13689;48.590;7.752;2023-01-24T11:09:08;4.80;87.40
25871;DHT22;13689;48.590;7.752;2023-01-24T11:11:34;4.80;87.50
25871;DHT22;13689;48.590;7.752;2023-01-24T11:14:05;4.90;87.80
25871;DHT22;13689;48.590;7.752;2023-01-24T11:16:44;4.90;87.80
25871;DHT22;13689;48.590;7.752;2023-01-24T11:21:53;5.00;87.70
25871;DHT22;13689;48.590;7.752;2023-01-24T11:24:19;5.00;87.60
25871;DHT22;13689;48.590;7.752;2023-01-24T11:26:57;5.00;87.50
25871;DHT22;13689;48.590;7.752;2023-01-24T11:29:23;5.00;87.40
25871;DHT22;13689;48.590;7.752;2023-01-24T11:31:57;5.00;87.40
25871;DHT22;13689;48.590;7.752;2023-01-24T11:43:29;5.10;87.30
25871;DHT22;13689;48.590;7.752;2023-01-24T11:46:19;5.10;87.10
25871;DHT22;13689;48.590;7.752;2023-01-24T11:48:54;5.10;87.00
25871;DHT22;13689;48.590;7.752;2023-01-24T11:52:45;5.00;86.90
25871;DHT22;13689;48.590;7.752;2023-01-24T11:59:46;5.10;86.80
25871;DHT22;13689;48.590;7.752;2023-01-24T12:05:10;5.10;86.90
25871;DHT22;13689;48.590;7.752;2023-01-24T12:07:56;5.10;86.60
25871;DHT22;13689;48.590;7.752;2023-01-24T12:16:28;5.10;86.70
25871;DHT22;13689;48.590;7.752;2023-01-24T12:21:48;5.20;86.80
25871;DHT22;13689;48.590;7.752;2023-01-24T12:24:45;5.20;86.60
25871;DHT22;13689;48.590;7.752;2023-01-24T12:27:18;5.20;86.60
25871;DHT22;13689;48.590;7.752;2023-01-24T12:29:54;5.20;86.40
25871;DHT22;13689;48.590;7.752;2023-01-24T12:34:56;5.20;86.40
25871;DHT22;13689;48.590;7.752;2023-01-24T12:40:20;5.30;86.50
25871;DHT22;13689;48.590;7.752;2023-01-24T12:54:02;5.30;86.10
25871;DHT22;13689;48.590;7.752;2023-01-24T12:59:03;5.40;86.00
25871;DHT22;13689;48.590;7.752;2023-01-24T13:04:35;5.40;85.80
25871;DHT22;13689;48.590;7.752;2023-01-24T13:10:25;5.40;85.60
25871;DHT22;13689;48.590;7.752;2023-01-24T13:12:54;5.40;85.50
25871;DHT22;13689;48.590;7.752;2023-01-24T13:15:32;5.40;85.50
25871;DHT22;13689;48.590;7.752;2023-01-24T13:18:26;5.50;85.60
25871;DHT22;13689;48.590;7.752;2023-01-24T13:21:23;5.50;85.50
25871;DHT22;13689;48.590;7.752;2023-01-24T13:23:58;5.50;85.70
25871;DHT22;13689;48.590;7.752;2023-01-24T13:29:18;5.50;85.40
25871;DHT22;13689;48.590;7.752;2023-01-24T13:34:31;5.60;85.50
25871;DHT22;13689;48.590;7.752;2023-01-24T13:36:58;5.60;85.00
25871;DHT22;13689;48.590;7.752;2023-01-24T13:39:37;5.60;85.00
25871;DHT22;13689;48.590;7.752;2023-01-24T13:44:38;5.60;85.10
25871;DHT22;13689;48.590;7.752;2023-01-24T13:49:45;5.50;84.80
25871;DHT22;13689;48.590;7.752;2023-01-24T13:54:59;5.50;85.00
25871;DHT22;13689;48.590;7.752;2023-01-24T13:57:27;5.50;84.90
25871;DHT22;13689;48.590;7.752;2023-01-24T14:00:19;5.50;85.00
25871;DHT22;13689;48.590;7.752;2023-01-24T14:07:56;5.50;85.00
25871;DHT22;13689;48.590;7.752;2023-01-24T14:21:44;5.30;85.20
25871;DHT22;13689;48.590;7.752;2023-01-24T14:24:28;5.30;85.40
25871;DHT22;13689;48.590;7.752;2023-01-24T14:26:58;5.30;85.60
25871;DHT22;13689;48.590;7.752;2023-01-24T14:29:37;5.30;85.60
25871;DHT22;13689;48.590;7.752;2023-01-24T14:32:23;5.30;85.90
25871;DHT22;13689;48.590;7.752;2023-01-24T14:35:22;5.20;86.00
25871;DHT22;13689;48.590;7.752;2023-01-24T14:37:49;5.30;86.00
25871;DHT22;13689;48.590;7.752;2023-01-24T14:40:25;5.30;86.00
25871;DHT22;13689;48.590;7.752;2023-01-24T14:42:59;5.30;86.00
25871;DHT22;13689;48.590;7.752;2023-01-24T14:45:29;5.20;86.10
25871;DHT22;13689;48.590;7.752;2023-01-24T14:47:56;5.20;86.20
25871;DHT22;13689;48.590;7.752;2023-01-24T14:50:31;5.20;86.50
25871;DHT22;13689;48.590;7.752;2023-01-24T14:53:02;5.20;86.40
25871;DHT22;13689;48.590;7.752;2023-01-24T14:55:46;5.20;86.40
25871;DHT22;13689;48.590;7.752;2023-01-24T14:58:14;5.20;86.40
25871;DHT22;13689;48.590;7.752;2023-01-24T15:00:41;5.10;86.70
25871;DHT22;13689;48.590;7.752;2023-01-24T15:03:10;5.20;86.80
25871;DHT22;13689;48.590;7.752;2023-01-24T15:05:39;5.20;86.60
25871;DHT22;13689;48.590;7.752;2023-01-24T15:08:06;5.10;86.90
25871;DHT22;13689;48.590;7.752;2023-01-24T15:10:40;5.10;87.00
25871;DHT22;13689;48.590;7.752;2023-01-24T15:13:28;5.00;87.00
25871;DHT22;13689;48.590;7.752;2023-01-24T15:15:54;5.00;87.40
25871;DHT22;13689;48.590;7.752;2023-01-24T15:18:40;4.90;87.50
25871;DHT22;13689;48.590;7.752;2023-01-24T15:21:28;5.00;87.70
25871;DHT22;13689;48.590;7.752;2023-01-24T15:23:55;5.00;87.80
25871;DHT22;13689;48.590;7.752;2023-01-24T15:28:54;5.00;87.80
25871;DHT22;13689;48.590;7.752;2023-01-24T15:31:22;5.00;87.80
25871;DHT22;13689;48.590;7.752;2023-01-24T15:34:00;5.00;87.60
25871;DHT22;13689;48.590;7.752;2023-01-24T15:36:28;5.00;87.50
25871;DHT22;13689;48.590;7.752;2023-01-24T15:38:57;4.90;87.60
25871;DHT22;13689;48.590;7.752;2023-01-24T15:41:30;4.90;87.90
25871;DHT22;13689;48.590;7.752;2023-01-24T15:44:29;4.80;88.00
25871;DHT22;13689;48.590;7.752;2023-01-24T15:46:56;4.90;88.10
25871;DHT22;13689;48.590;7.752;2023-01-24T15:49:57;4.90;88.10
25871;DHT22;13689;48.590;7.752;2023-01-24T15:52:23;4.80;88.10
25871;DHT22;13689;48.590;7.752;2023-01-24T15:54:56;4.90;88.30
25871;DHT22;13689;48.590;7.752;2023-01-24T15:57:32;4.80;88.10
25871;DHT22;13689;48.590;7.752;2023-01-24T16:02:33;4.80;88.50
25871;DHT22;13689;48.590;7.752;2023-01-24T16:04:59;4.90;88.60
25871;DHT22;13689;48.590;7.752;2023-01-24T16:07:25;4.90;88.30
25871;DHT22;13689;48.590;7.752;2023-01-24T16:09:51;4.90;88.40
25871;DHT22;13689;48.590;7.752;2023-01-24T16:12:20;4.80;88.10
25871;DHT22;13689;48.590;7.752;2023-01-24T16:14:51;4.80;88.30
25871;DHT22;13689;48.590;7.752;2023-01-24T16:17:21;4.70;88.30
25871;DHT22;13689;48.590;7.752;2023-01-24T16:19:48;4.70;88.70
25871;DHT22;13689;48.590;7.752;2023-01-24T16:22:14;4.70;88.60
25871;DHT22;13689;48.590;7.752;2023-01-24T16:24:41;4.70;88.70
25871;DHT22;13689;48.590;7.752;2023-01-24T16:27:10;4.70;88.70
25871;DHT22;13689;48.590;7.752;2023-01-24T16:29:36;4.70;89.00
25871;DHT22;13689;48.590;7.752;2023-01-24T16:32:02;4.70;88.80
25871;DHT22;13689;48.590;7.752;2023-01-24T16:34:28;4.70;89.00
25871;DHT22;13689;48.590;7.752;2023-01-24T16:36:54;4.70;88.80
25871;DHT22;13689;48.590;7.752;2023-01-24T16:39:21;4.60;88.80
25871;DHT22;13689;48.590;7.752;2023-01-24T16:41:48;4.60;88.80
25871;DHT22;13689;48.590;7.752;2023-01-24T16:44:15;4.60;89.10
25871;DHT22;13689;48.590;7.752;2023-01-24T16:46:50;4.60;88.90
25871;DHT22;13689;48.590;7.752;2023-01-24T16:49:16;4.50;89.00
25871;DHT22;13689;48.590;7.752;2023-01-24T16:51:43;4.60;89.30
25871;DHT22;13689;48.590;7.752;2023-01-24T16:54:09;4.50;89.30
25871;DHT22;13689;48.590;7.752;2023-01-24T16:56:34;4.50;89.30
25871;DHT22;13689;48.590;7.752;2023-01-24T16:59:00;4.50;89.60
25871;DHT22;13689;48.590;7.752;2023-01-24T17:01:26;4.50;89.30
25871;DHT22;13689;48.590;7.752;2023-01-24T17:03:52;4.50;89.50
25871;DHT22;13689;48.590;7.752;2023-01-24T17:06:19;4.50;89.90
25871;DHT22;13689;48.590;7.752;2023-01-24T17:08:50;4.40;89.50
25871;DHT22;13689;48.590;7.752;2023-01-24T17:11:16;4.40;89.80
25871;DHT22;13689;48.590;7.752;2023-01-24T17:13:45;4.40;90.00
25871;DHT22;13689;48.590;7.752;2023-01-24T17:16:12;4.40;89.80
25871;DHT22;13689;48.590;7.752;2023-01-24T17:18:38;4.40;89.80
25871;DHT22;13689;48.590;7.752;2023-01-24T17:21:07;4.30;89.90
25871;DHT22;13689;48.590;7.752;2023-01-24T17:23:34;4.30;90.00
25871;DHT22;13689;48.590;7.752;2023-01-24T17:26:18;4.30;90.10
25871;DHT22;13689;48.590;7.752;2023-01-24T17:28:44;4.30;90.20
25871;DHT22;13689;48.590;7.752;2023-01-24T17:31:18;4.30;90.10
25871;DHT22;13689;48.590;7.752;2023-01-24T17:33:45;4.30;90.30
25871;DHT22;13689;48.590;7.752;2023-01-24T17:36:11;4.30;90.10
25871;DHT22;13689;48.590;7.752;2023-01-24T17:38:39;4.30;90.20
25871;DHT22;13689;48.590;7.752;2023-01-24T17:41:04;4.30;90.20
25871;DHT22;13689;48.590;7.752;2023-01-24T17:43:30;4.20;90.20
25871;DHT22;13689;48.590;7.752;2023-01-24T17:46:00;4.30;90.40
25871;DHT22;13689;48.590;7.752;2023-01-24T17:48:26;4.40;90.30
25871;DHT22;13689;48.590;7.752;2023-01-24T17:50:52;4.30;90.20
25871;DHT22;13689;48.590;7.752;2023-01-24T17:53:18;4.30;90.20
25871;DHT22;13689;48.590;7.752;2023-01-24T17:55:45;4.30;90.40
25871;DHT22;13689;48.590;7.752;2023-01-24T17:58:11;4.30;90.30
25871;DHT22;13689;48.590;7.752;2023-01-24T18:00:37;4.30;90.30
25871;DHT22;13689;48.590;7.752;2023-01-24T18:03:03;4.30;90.30
25871;DHT22;13689;48.590;7.752;2023-01-24T18:05:29;4.30;90.40
25871;DHT22;13689;48.590;7.752;2023-01-24T18:07:55;4.30;90.30
25871;DHT22;13689;48.590;7.752;2023-01-24T18:10:21;4.20;90.30